Time;durP1;ratioP1;P1;durP2;ratioP2;P2;SDS_P1;SDS_P2;PMS_P1;PMS_P2;Temp;Humidity;BMP_temperature;BMP_pressure;BME280_temperature;BME280_humidity;BME280_pressure;Samples;Min_cycle;Max_cycle;Signal;HPM_P1;HPM_P2
2021/12/25 00:00:06;;;;;;;8.30;7.90;;;11.40;84.70;;;;;;5009731;28;20033;-89
2021/12/25 00:02:34;;;;;;;9.48;8.85;;;11.30;84.60;;;;;;5011983;28;20046;-89
2021/12/25 00:05:00;;;;;;;8.35;7.95;;;11.30;84.70;;;;;;5009773;28;20022;-89
2021/12/25 00:07:26;;;;;;;8.57;8.15;;;11.30;84.80;;;;;;5007197;28;20026;-90
2021/12/25 00:09:52;;;;;;;8.73;8.13;;;11.30;84.70;;;;;;5011222;28;20026;-90
2021/12/25 00:12:18;;;;;;;9.38;8.63;;;11.40;84.70;;;;;;5010505;28;20037;-90
2021/12/25 00:14:44;;;;;;;10.80;8.52;;;11.30;84.70;;;;;;4996411;28;20049;-89
2021/12/25 00:17:10;;;;;;;7.63;7.22;;;11.30;84.70;;;;;;5012609;28;20025;-89
2021/12/25 00:19:36;;;;;;;8.63;8.23;;;11.30;84.70;;;;;;4989273;28;20049;-89
2021/12/25 00:22:02;;;;;;;9.15;8.65;;;11.30;84.70;;;;;;5012556;28;20398;-89
2021/12/25 00:24:29;;;;;;;9.32;8.73;;;11.30;84.70;;;;;;5015594;28;20356;-90
2021/12/25 00:27:05;;;;;;;9.70;9.15;;;11.30;84.70;;;;;;5010647;28;20028;-89
2021/12/25 00:34:48;;;;;;;9.07;8.57;;;11.20;84.80;;;;;;5009787;28;20038;-89
2021/12/25 00:37:14;;;;;;;9.23;8.68;;;11.20;84.80;;;;;;5010758;28;20026;-91
2021/12/25 00:39:42;;;;;;;9.45;8.88;;;11.20;84.90;;;;;;5011628;28;20022;-91
2021/12/25 00:42:09;;;;;;;9.43;8.93;;;11.10;84.90;;;;;;5008903;28;20030;-91
2021/12/25 00:44:35;;;;;;;21.88;9.38;;;11.10;84.80;;;;;;4995940;28;20026;-91
2021/12/25 00:47:02;;;;;;;8.80;8.38;;;11.10;84.80;;;;;;5008521;28;20045;-89
2021/12/25 00:49:28;;;;;;;8.63;8.13;;;11.10;84.90;;;;;;5008913;28;20036;-89
2021/12/25 00:51:54;;;;;;;9.25;8.75;;;11.10;84.90;;;;;;5009479;28;20384;-91
2021/12/25 00:54:20;;;;;;;8.80;8.38;;;11.10;84.90;;;;;;5011457;28;20030;-91
2021/12/25 00:56:46;;;;;;;9.98;9.20;;;11.10;84.90;;;;;;5010858;28;20030;-89
2021/12/25 00:59:13;;;;;;;9.85;9.35;;;11.10;84.90;;;;;;5010673;28;20388;-91
2021/12/25 01:01:39;;;;;;;8.40;8.00;;;11.10;84.80;;;;;;5010456;28;20050;-90
2021/12/25 01:04:05;;;;;;;8.68;8.23;;;11.10;84.80;;;;;;5008817;28;20038;-90
2021/12/25 01:06:31;;;;;;;8.40;7.95;;;11.10;84.70;;;;;;5009779;28;20026;-89
2021/12/25 01:08:57;;;;;;;8.63;8.02;;;11.20;84.80;;;;;;5009643;28;20022;-90
2021/12/25 01:11:26;;;;;;;7.35;7.03;;;11.20;84.80;;;;;;5010434;28;20423;-90
2021/12/25 01:13:59;;;;;;;8.75;8.25;;;11.20;84.70;;;;;;5010554;28;20026;-91
2021/12/25 01:21:56;;;;;;;8.15;7.65;;;11.10;84.70;;;;;;4973960;28;20042;-90
2021/12/25 01:27:24;;;;;;;8.27;7.88;;;11.10;84.70;;;;;;4976242;28;20049;-90
2021/12/25 01:30:02;;;;;;;8.05;7.53;;;11.10;84.80;;;;;;4989753;28;20384;-91
2021/12/25 01:48:38;;;;;;;8.95;8.27;;;11.00;84.80;;;;;;4972265;28;20498;-90
2021/12/25 01:51:04;;;;;;;8.98;8.57;;;11.00;84.70;;;;;;4972795;28;20050;-90
2021/12/25 01:53:31;;;;;;;8.95;8.45;;;11.10;84.70;;;;;;4957231;28;20046;-89
2021/12/25 01:55:59;;;;;;;9.13;8.35;;;11.10;84.70;;;;;;4971222;28;20053;-90
2021/12/25 01:58:25;;;;;;;9.27;8.70;;;11.10;84.70;;;;;;4992696;28;20045;-90
2021/12/25 02:00:53;;;;;;;8.90;8.40;;;11.10;84.70;;;;;;4998340;28;20042;-90
2021/12/25 02:03:20;;;;;;;9.55;8.85;;;11.10;84.70;;;;;;5008656;28;20471;-91
2021/12/25 02:05:46;;;;;;;9.20;8.70;;;11.10;84.70;;;;;;5010709;28;20034;-90
2021/12/25 02:08:12;;;;;;;8.18;7.75;;;11.10;84.70;;;;;;5010551;28;20041;-91
2021/12/25 02:10:38;;;;;;;7.88;7.47;;;11.10;84.70;;;;;;5010339;28;20041;-90
2021/12/25 02:13:04;;;;;;;7.72;7.38;;;11.10;84.70;;;;;;5009664;28;20034;-90
2021/12/25 02:15:31;;;;;;;7.72;7.32;;;11.20;84.70;;;;;;5008328;28;20045;-89
2021/12/25 02:18:25;;;;;;;7.60;7.25;;;11.20;84.70;;;;;;5008476;28;20034;-90
2021/12/25 02:23:42;;;;;;;7.28;6.90;;;11.20;84.60;;;;;;4975246;28;20095;-89
2021/12/25 02:26:08;;;;;;;7.78;7.38;;;11.30;84.50;;;;;;4975098;28;20035;-90
2021/12/25 02:28:34;;;;;;;7.93;7.43;;;11.30;84.50;;;;;;4983415;28;20138;-90
2021/12/25 02:31:06;;;;;;;7.82;7.43;;;11.30;84.50;;;;;;4983504;28;20045;-91
2021/12/25 02:33:32;;;;;;;7.75;7.35;;;11.30;84.50;;;;;;4976445;28;20050;-89
2021/12/25 02:35:58;;;;;;;7.65;7.25;;;11.30;84.50;;;;;;4971726;28;20053;-90
2021/12/25 02:38:25;;;;;;;7.40;7.10;;;11.40;84.60;;;;;;4968948;28;20428;-89
2021/12/25 02:40:51;;;;;;;7.65;7.25;;;11.40;84.60;;;;;;4974713;28;20050;-90
2021/12/25 02:43:17;;;;;;;7.45;7.13;;;11.40;84.60;;;;;;4972143;28;20038;-89
2021/12/25 02:45:44;;;;;;;7.88;7.47;;;11.40;84.50;;;;;;4974676;28;20035;-90
2021/12/25 02:48:11;;;;;;;7.70;7.30;;;11.40;84.50;;;;;;4973721;28;20558;-92
2021/12/25 02:50:38;;;;;;;7.05;6.75;;;11.40;84.50;;;;;;4959725;28;20512;-93
2021/12/25 02:53:05;;;;;;;7.80;7.43;;;11.40;84.50;;;;;;4969392;28;20053;-92
2021/12/25 02:55:31;;;;;;;7.03;6.72;;;11.50;84.50;;;;;;4974886;28;20058;-91
2021/12/25 02:57:57;;;;;;;7.82;7.43;;;11.50;84.50;;;;;;4976241;28;20042;-91
2021/12/25 03:00:28;;;;;;;8.23;7.82;;;11.50;84.50;;;;;;5004366;28;20065;-92
2021/12/25 03:02:54;;;;;;;7.68;7.32;;;11.50;84.50;;;;;;5001947;28;20042;-92
2021/12/25 03:05:20;;;;;;;8.73;8.23;;;11.60;84.50;;;;;;5004454;28;20030;-91
2021/12/25 03:07:47;;;;;;;7.82;7.45;;;11.60;84.50;;;;;;5006668;28;20398;-91
2021/12/25 03:10:14;;;;;;;7.50;7.18;;;11.60;84.50;;;;;;5005284;28;20029;-91
2021/12/25 03:12:53;;;;;;;8.57;8.18;;;11.60;84.50;;;;;;5005525;28;20018;-92
2021/12/25 03:15:29;;;;;;;7.72;7.03;;;11.60;84.40;;;;;;4988822;28;20066;-91
2021/12/25 03:17:56;;;;;;;7.72;7.35;;;11.60;84.40;;;;;;5011434;28;20041;-92
2021/12/25 03:20:22;;;;;;;8.82;8.30;;;11.60;84.50;;;;;;5012929;28;20041;-92
2021/12/25 03:22:48;;;;;;;8.00;7.60;;;11.70;84.50;;;;;;5011982;28;20049;-92
2021/12/25 03:25:15;;;;;;;7.90;7.50;;;11.70;84.50;;;;;;4996056;28;20053;-91
2021/12/25 03:27:42;;;;;;;7.97;7.60;;;11.60;84.40;;;;;;5008580;28;20038;-91
2021/12/25 03:30:09;;;;;;;8.45;8.05;;;11.70;84.50;;;;;;4995648;28;20034;-92
2021/12/25 03:32:35;;;;;;;8.60;8.20;;;11.70;84.90;;;;;;5001354;28;21226;-91
2021/12/25 03:35:02;;;;;;;8.02;7.63;;;11.70;84.50;;;;;;5007720;28;20467;-91
2021/12/25 03:37:28;;;;;;;8.85;8.45;;;11.70;84.50;;;;;;5013755;28;20030;-92
2021/12/25 03:39:54;;;;;;;8.25;7.85;;;11.70;84.40;;;;;;4996779;28;20069;-92
2021/12/25 03:42:20;;;;;;;8.50;8.10;;;11.70;84.50;;;;;;5011234;28;20045;-92
2021/12/25 03:44:46;;;;;;;8.00;7.60;;;11.70;84.50;;;;;;5014376;28;20030;-92
2021/12/25 03:47:24;;;;;;;7.80;7.45;;;11.70;84.50;;;;;;5012514;28;20410;-93
2021/12/25 03:58:08;;;;;;;8.38;7.93;;;11.70;84.50;;;;;;5018804;28;20041;-92
2021/12/25 04:00:35;;;;;;;7.75;7.43;;;11.70;84.60;;;;;;5014103;28;20045;-91
2021/12/25 04:03:06;;;;;;;8.13;7.65;;;11.70;84.60;;;;;;5013344;28;20364;-92
2021/12/25 04:05:35;;;;;;;8.05;7.65;;;11.70;84.60;;;;;;5012828;28;20061;-92
2021/12/25 04:08:06;;;;;;;7.45;7.05;;;11.70;84.60;;;;;;5013314;28;20034;-92
2021/12/25 04:10:36;;;;;;;8.05;7.65;;;11.70;84.60;;;;;;5012398;28;20018;-91
2021/12/25 04:13:04;;;;;;;8.35;7.95;;;11.70;84.60;;;;;;5012312;28;20035;-91
2021/12/25 04:15:30;;;;;;;7.90;7.50;;;11.70;84.60;;;;;;5011726;28;20037;-91
2021/12/25 04:17:56;;;;;;;7.80;7.40;;;11.70;84.70;;;;;;4995582;28;20075;-91
2021/12/25 04:20:23;;;;;;;8.50;7.97;;;11.70;84.70;;;;;;5012356;28;20029;-92
2021/12/25 04:22:58;;;;;;;8.05;7.65;;;11.70;84.70;;;;;;5013464;28;20041;-91
2021/12/25 04:25:28;;;;;;;7.63;7.22;;;11.70;84.70;;;;;;5012492;28;20022;-92
2021/12/25 04:27:57;;;;;;;8.30;7.90;;;11.70;84.80;;;;;;5013509;28;20387;-94
2021/12/25 04:31:03;;;;;;;8.10;7.70;;;11.70;84.80;;;;;;5012111;28;20089;-91
2021/12/25 04:42:45;;;;;;;8.13;7.72;;;11.70;84.80;;;;;;5007753;28;20037;-92
2021/12/25 05:11:05;;;;;;;7.68;7.32;;;11.70;84.90;;;;;;5133378;23;20055;-92
2021/12/25 05:13:32;;;;;;;8.05;7.63;;;11.60;85.60;;;;;;4998711;28;20033;-92
2021/12/25 05:16:00;;;;;;;8.50;8.10;;;11.70;84.80;;;;;;4994995;28;20015;-93
2021/12/25 05:18:26;;;;;;;8.55;8.15;;;11.70;84.90;;;;;;4995028;28;20033;-92
2021/12/25 05:20:52;;;;;;;8.98;8.55;;;11.70;84.90;;;;;;4990883;28;20035;-91
2021/12/25 05:23:18;;;;;;;7.30;7.00;;;11.70;84.80;;;;;;4991173;28;20034;-93
2021/12/25 05:25:44;;;;;;;8.02;7.63;;;11.70;84.80;;;;;;4977536;28;20049;-94
2021/12/25 05:28:12;;;;;;;7.82;7.43;;;11.70;84.80;;;;;;4991927;28;20031;-93
2021/12/25 05:30:40;;;;;;;8.77;8.15;;;11.70;84.80;;;;;;4990577;28;20031;-93
2021/12/25 05:33:06;;;;;;;8.02;7.63;;;11.70;84.80;;;;;;4986873;28;20035;-93
2021/12/25 05:35:33;;;;;;;8.82;8.43;;;11.70;84.80;;;;;;4987951;28;20040;-93
2021/12/25 05:38:00;;;;;;;8.25;7.85;;;11.60;84.80;;;;;;4985899;28;20046;-93
2021/12/25 05:40:26;;;;;;;8.00;7.50;;;11.60;84.90;;;;;;4963576;28;20050;-92
2021/12/25 05:42:52;;;;;;;8.65;8.25;;;11.60;85.00;;;;;;4956972;29;20042;-93
2021/12/25 05:45:19;;;;;;;9.27;8.82;;;11.60;85.00;;;;;;4955096;28;20031;-92
2021/12/25 05:47:45;;;;;;;8.45;8.05;;;11.50;85.00;;;;;;4969951;28;20034;-92
2021/12/25 05:50:11;;;;;;;8.70;8.13;;;11.50;85.00;;;;;;4975446;28;20031;-92
2021/12/25 05:52:37;;;;;;;7.57;7.20;;;11.50;85.80;;;;;;4959401;28;20377;-92
2021/12/25 05:55:03;;;;;;;8.07;7.68;;;11.50;85.00;;;;;;4973936;28;20033;-92
2021/12/25 05:57:29;;;;;;;7.50;7.10;;;11.40;85.00;;;;;;4974656;28;20031;-92
2021/12/25 05:59:55;;;;;;;8.02;7.63;;;11.40;85.10;;;;;;4979938;28;20498;-91
2021/12/25 06:02:21;;;;;;;8.57;8.10;;;11.50;85.10;;;;;;4974198;28;20043;-91
2021/12/25 06:04:47;;;;;;;8.85;8.13;;;11.50;85.10;;;;;;4965463;28;20405;-92
2021/12/25 06:07:13;;;;;;;7.90;7.45;;;11.50;85.10;;;;;;4938697;29;20032;-92
2021/12/25 06:09:40;;;;;;;8.55;8.05;;;11.50;85.10;;;;;;4941911;29;20031;-91
2021/12/25 06:12:10;;;;;;;8.45;7.90;;;11.50;85.10;;;;;;4944831;29;20060;-91
2021/12/25 06:14:36;;;;;;;9.93;8.82;;;11.50;85.20;;;;;;4936137;29;20035;-94
2021/12/25 06:17:02;;;;;;;8.82;8.32;;;11.50;85.10;;;;;;4953354;28;20062;-92
2021/12/25 06:19:28;;;;;;;7.75;7.35;;;11.50;85.10;;;;;;4973254;28;20043;-91
2021/12/25 06:21:54;;;;;;;8.32;7.93;;;11.50;85.10;;;;;;4983532;28;20073;-92
2021/12/25 06:24:22;;;;;;;9.27;8.77;;;11.50;85.10;;;;;;4973039;28;20053;-93
2021/12/25 06:26:48;;;;;;;9.68;9.10;;;11.50;85.20;;;;;;4979719;28;20035;-92
2021/12/25 06:29:19;;;;;;;7.88;7.47;;;11.50;85.20;;;;;;4968463;28;20011;-91
2021/12/25 06:31:45;;;;;;;;;;;11.50;85.10;;;;;;5339563;23;20034;-93
2021/12/25 06:34:11;;;;;;;8.45;8.05;;;11.50;85.10;;;;;;4994376;28;19917;-92
2021/12/25 06:39:15;;;;;;;9.90;9.38;;;11.50;85.00;;;;;;4980630;23;20051;-93
2021/12/25 06:41:42;;;;;;;8.10;7.65;;;11.50;85.00;;;;;;4953805;28;20059;-94
2021/12/25 06:44:09;;;;;;;8.07;7.68;;;11.40;85.10;;;;;;4942358;28;20488;-92
2021/12/25 06:46:35;;;;;;;8.88;8.38;;;11.40;85.10;;;;;;4972767;28;20035;-93
2021/12/25 06:49:01;;;;;;;9.50;8.90;;;11.50;85.40;;;;;;4969248;28;20046;-90
2021/12/25 06:51:27;;;;;;;9.23;8.73;;;11.50;85.20;;;;;;4969152;28;20038;-92
2021/12/25 06:53:53;;;;;;;9.30;8.70;;;11.50;85.10;;;;;;4980989;28;20035;-95
2021/12/25 06:56:21;;;;;;;8.50;8.10;;;11.50;85.10;;;;;;4982421;28;20035;-90
2021/12/25 06:58:47;;;;;;;9.45;8.75;;;11.40;85.10;;;;;;4978237;28;20030;-95
2021/12/25 07:01:13;;;;;;;9.48;8.98;;;11.40;85.10;;;;;;4974680;28;20036;-92
2021/12/25 07:03:39;;;;;;;8.13;7.72;;;11.40;85.20;;;;;;4966686;28;20035;-93
2021/12/25 07:06:05;;;;;;;8.27;7.85;;;11.40;85.20;;;;;;4988498;28;20050;-95
2021/12/25 07:08:31;;;;;;;8.23;7.72;;;11.40;85.30;;;;;;4972394;28;20038;-88
2021/12/25 07:10:57;;;;;;;7.00;6.70;;;11.40;85.30;;;;;;4975817;28;20039;-89
2021/12/25 07:13:23;;;;;;;9.35;8.60;;;11.40;85.30;;;;;;4975036;28;20046;-91
2021/12/25 07:15:49;;;;;;;8.18;7.78;;;11.40;86.00;;;;;;4975600;28;20031;-86
2021/12/25 07:18:16;;;;;;;8.35;7.95;;;11.40;85.30;;;;;;4959365;28;20495;-86
2021/12/25 07:20:42;;;;;;;8.25;7.85;;;11.40;85.20;;;;;;4977102;28;20042;-83
2021/12/25 07:23:08;;;;;;;8.43;7.88;;;11.40;85.20;;;;;;4973386;28;20049;-80
2021/12/25 07:25:34;;;;;;;8.23;7.82;;;11.40;85.20;;;;;;4964789;28;20039;-87
2021/12/25 07:28:01;;;;;;;9.50;8.88;;;11.30;85.10;;;;;;4976837;28;20042;-82
2021/12/25 07:30:27;;;;;;;8.02;7.63;;;11.30;85.20;;;;;;4973294;28;20473;-83
2021/12/25 07:32:53;;;;;;;9.13;8.63;;;11.30;85.30;;;;;;4958917;28;20027;-88
2021/12/25 07:35:19;;;;;;;7.70;7.30;;;11.40;85.30;;;;;;4970567;28;20039;-87
2021/12/25 07:37:45;;;;;;;15.18;12.15;;;11.30;85.30;;;;;;4977773;28;20509;-82
2021/12/25 07:40:12;;;;;;;9.05;8.50;;;11.30;85.30;;;;;;4978079;28;20038;-83
2021/12/25 07:42:38;;;;;;;10.30;9.50;;;11.30;85.30;;;;;;4971902;28;20508;-84
2021/12/25 07:45:06;;;;;;;8.85;8.27;;;11.30;85.30;;;;;;4960474;28;20493;-83
2021/12/25 07:47:36;;;;;;;7.70;7.32;;;11.30;85.30;;;;;;4989810;28;20483;-82
2021/12/25 07:50:05;;;;;;;8.73;8.32;;;11.30;85.30;;;;;;4965658;28;20066;-87
2021/12/25 07:52:31;;;;;;;10.23;9.73;;;11.40;85.30;;;;;;4962992;28;20066;-88
2021/12/25 07:54:57;;;;;;;10.43;9.52;;;11.40;85.30;;;;;;4963515;28;20038;-88
2021/12/25 07:57:23;;;;;;;9.00;8.45;;;11.30;85.20;;;;;;4969213;28;20046;-86
2021/12/25 07:59:49;;;;;;;9.20;8.43;;;11.30;85.30;;;;;;4957394;28;20031;-87
2021/12/25 08:02:16;;;;;;;8.65;8.25;;;11.30;85.30;;;;;;4975334;28;20484;-89
2021/12/25 08:04:42;;;;;;;8.35;7.85;;;11.30;85.30;;;;;;4971150;28;20031;-79
2021/12/25 08:07:08;;;;;;;8.30;7.90;;;11.30;85.30;;;;;;4969869;28;20054;-79
2021/12/25 08:09:35;;;;;;;8.27;7.82;;;11.30;85.30;;;;;;4974561;28;20034;-80
2021/12/25 08:12:02;;;;;;;8.70;8.20;;;11.30;85.40;;;;;;4972835;28;20050;-89
2021/12/25 08:14:28;;;;;;;9.07;8.68;;;11.30;85.30;;;;;;4950939;28;20047;-86
2021/12/25 08:16:56;;;;;;;8.13;7.72;;;11.20;85.30;;;;;;4966678;28;20035;-86
2021/12/25 08:19:22;;;;;;;8.77;8.38;;;11.20;85.30;;;;;;4967938;28;20046;-87
2021/12/25 08:21:48;;;;;;;8.65;8.25;;;11.20;85.30;;;;;;4957195;28;20047;-87
2021/12/25 08:24:15;;;;;;;8.65;8.25;;;11.20;85.40;;;;;;4967366;28;20090;-86
2021/12/25 08:26:41;;;;;;;8.85;8.45;;;11.20;85.40;;;;;;4991575;28;20522;-86
2021/12/25 08:29:07;;;;;;;8.88;8.48;;;11.20;85.40;;;;;;4966240;28;20401;-86
2021/12/25 08:31:33;;;;;;;9.20;8.68;;;11.20;85.40;;;;;;4972232;28;20042;-87
2021/12/25 08:34:00;;;;;;;8.60;8.18;;;11.20;85.40;;;;;;4971820;28;20480;-87
2021/12/25 08:36:26;;;;;;;8.38;7.97;;;11.20;85.40;;;;;;4970740;28;20031;-87
2021/12/25 08:38:52;;;;;;;8.45;8.05;;;11.20;85.40;;;;;;4957389;28;20058;-86
2021/12/25 08:41:20;;;;;;;8.77;8.32;;;11.10;85.40;;;;;;4973336;28;20035;-86
2021/12/25 08:43:48;;;;;;;20.88;9.50;;;11.10;85.40;;;;;;4963827;28;20039;-86
2021/12/25 08:46:18;;;;;;;9.68;9.18;;;11.10;85.40;;;;;;4970661;28;20453;-86
2021/12/25 08:48:45;;;;;;;8.48;8.07;;;11.10;85.50;;;;;;4967614;28;20023;-87
2021/12/25 08:51:12;;;;;;;8.68;8.18;;;11.10;85.50;;;;;;4973108;28;20042;-87
2021/12/25 08:53:38;;;;;;;9.43;8.93;;;11.10;85.50;;;;;;4958123;28;20127;-86
2021/12/25 08:56:04;;;;;;;9.68;9.07;;;11.10;85.50;;;;;;4955798;28;20047;-86
2021/12/25 08:58:31;;;;;;;8.25;7.85;;;11.10;85.40;;;;;;4966741;28;20023;-92
2021/12/25 09:01:02;;;;;;;8.82;8.27;;;11.10;85.50;;;;;;4968174;28;20046;-94
2021/12/25 09:03:29;;;;;;;8.27;7.88;;;11.20;86.40;;;;;;4951167;28;20047;-93
2021/12/25 09:05:59;;;;;;;9.15;8.63;;;11.40;85.60;;;;;;4969197;28;20058;-89
2021/12/25 09:08:25;;;;;;;8.93;8.32;;;11.50;85.50;;;;;;4954435;28;20038;-88
2021/12/25 09:10:51;;;;;;;9.32;8.70;;;11.70;85.30;;;;;;4967762;28;20038;-86
2021/12/25 09:13:18;;;;;;;8.60;8.10;;;11.80;85.00;;;;;;4968182;28;20420;-84
2021/12/25 09:15:44;;;;;;;9.23;8.73;;;11.90;84.90;;;;;;4960202;28;20593;-84
2021/12/25 09:18:10;;;;;;;8.95;8.55;;;11.90;84.80;;;;;;4986651;28;20034;-84
2021/12/25 09:20:36;;;;;;;8.10;7.72;;;11.90;84.80;;;;;;4960838;28;20050;-83
2021/12/25 09:23:02;;;;;;;9.43;8.98;;;12.00;84.90;;;;;;4984554;28;20484;-83
2021/12/25 09:25:28;;;;;;;9.40;8.90;;;12.00;84.80;;;;;;4950636;28;20042;-83
2021/12/25 09:27:55;;;;;;;10.85;10.27;;;12.00;84.80;;;;;;4944788;28;20042;-82
2021/12/25 09:30:21;;;;;;;9.18;8.50;;;12.00;84.80;;;;;;4957815;28;20477;-84
2021/12/25 09:32:47;;;;;;;11.77;10.82;;;12.10;84.80;;;;;;4959721;28;20028;-80
2021/12/25 09:35:13;;;;;;;9.43;8.85;;;12.10;84.70;;;;;;4963016;28;20030;-81
2021/12/25 09:37:40;;;;;;;13.15;12.52;;;12.10;84.70;;;;;;4947450;28;20042;-81
2021/12/25 09:40:07;;;;;;;9.95;9.35;;;12.20;84.80;;;;;;4965614;28;20038;-81
2021/12/25 09:42:34;;;;;;;10.48;9.90;;;12.20;84.80;;;;;;4967421;28;20499;-82
2021/12/25 09:45:00;;;;;;;10.43;9.73;;;12.30;84.80;;;;;;4969081;28;20038;-83
2021/12/25 09:47:26;;;;;;;10.65;10.05;;;12.20;84.70;;;;;;4964058;28;20031;-82
2021/12/25 09:49:52;;;;;;;10.38;9.57;;;12.30;84.80;;;;;;4963734;28;20030;-82
2021/12/25 09:52:20;;;;;;;12.70;11.80;;;12.40;84.70;;;;;;4951774;28;20047;-84
2021/12/25 09:54:46;;;;;;;10.80;10.07;;;12.40;84.60;;;;;;4965178;28;20038;-86
2021/12/25 09:57:14;;;;;;;11.80;10.88;;;12.50;84.60;;;;;;4968037;28;20031;-84
2021/12/25 09:59:41;;;;;;;13.00;12.02;;;12.60;84.50;;;;;;4954812;28;20053;-83
2021/12/25 10:02:13;;;;;;;10.80;10.05;;;12.70;84.30;;;;;;4962371;28;20047;-83
2021/12/25 10:04:43;;;;;;;13.90;12.77;;;12.60;84.20;;;;;;4967589;28;20038;-84
2021/12/25 10:07:14;;;;;;;10.35;9.70;;;12.60;84.10;;;;;;4965806;28;20030;-86
2021/12/25 10:09:40;;;;;;;12.15;11.40;;;12.60;84.30;;;;;;4956764;28;20035;-84
2021/12/25 10:12:11;;;;;;;11.77;11.07;;;12.60;84.20;;;;;;4963406;28;20057;-84
2021/12/25 10:14:42;;;;;;;10.40;9.85;;;12.60;84.20;;;;;;4962944;28;20030;-85
2021/12/25 10:17:16;;;;;;;11.15;10.65;;;12.60;84.30;;;;;;4960803;28;20058;-83
2021/12/25 10:19:43;;;;;;;12.80;11.93;;;12.70;84.40;;;;;;4965441;28;20400;-83
2021/12/25 10:22:10;;;;;;;10.48;9.85;;;12.70;84.20;;;;;;4951173;28;20047;-83
2021/12/25 10:24:51;;;;;;;10.27;9.77;;;12.70;84.20;;;;;;4973129;28;20019;-85
2021/12/25 10:27:20;;;;;;;9.75;9.25;;;12.80;84.10;;;;;;4957063;28;20027;-82
2021/12/25 10:29:47;;;;;;;10.43;9.82;;;12.80;84.10;;;;;;4975936;28;20412;-84
2021/12/25 10:32:21;;;;;;;9.05;8.63;;;12.80;84.10;;;;;;4963669;28;20043;-84
2021/12/25 10:34:48;;;;;;;10.25;9.75;;;12.90;84.00;;;;;;4962150;28;20466;-83
2021/12/25 10:37:16;;;;;;;12.77;12.15;;;13.00;83.90;;;;;;4974096;28;20369;-84
2021/12/25 10:39:42;;;;;;;11.05;10.40;;;13.00;83.80;;;;;;4976603;28;20050;-84
2021/12/25 10:42:14;;;;;;;11.10;10.27;;;13.00;83.80;;;;;;4972840;28;20030;-84
2021/12/25 10:44:45;;;;;;;9.10;8.55;;;13.10;83.90;;;;;;4976210;28;20085;-84
2021/12/25 10:47:14;;;;;;;;;;;13.10;83.70;;;;;;4970768;28;20037;-84
2021/12/25 10:49:46;;;;;;;8.82;7.93;;;13.10;83.80;;;;;;4972838;28;19914;-82
2021/12/25 10:52:16;;;;;;;8.93;8.40;;;13.10;83.70;;;;;;4971540;28;20037;-84
2021/12/25 10:54:46;;;;;;;11.15;10.60;;;13.10;83.70;;;;;;4972288;28;20026;-84
2021/12/25 10:57:35;;;;;;;8.40;8.00;;;13.00;83.80;;;;;;4961909;28;20053;-83
2021/12/25 11:00:24;;;;;;;9.13;8.65;;;13.10;83.90;;;;;;4973126;28;20523;-85
2021/12/25 11:03:03;;;;;;;10.35;9.50;;;13.10;83.90;;;;;;4952871;28;20534;-85
2021/12/25 11:05:37;;;;;;;10.98;10.43;;;13.20;83.90;;;;;;4962359;28;20385;-86
2021/12/25 11:08:09;;;;;;;12.43;11.82;;;13.20;83.80;;;;;;4948075;28;20511;-85
2021/12/25 11:10:46;;;;;;;11.52;10.77;;;13.30;83.80;;;;;;4963051;28;20034;-88
2021/12/25 11:13:35;;;;;;;11.32;10.73;;;13.40;83.80;;;;;;4947670;28;20039;-85
2021/12/25 11:16:27;;;;;;;9.88;9.27;;;13.50;83.60;;;;;;4974836;28;20035;-86
2021/12/25 11:19:08;;;;;;;8.98;8.48;;;13.60;83.50;;;;;;4972542;28;20077;-88
2021/12/25 11:21:55;;;;;;;9.63;9.13;;;13.70;83.20;;;;;;4950761;28;20404;-88
2021/12/25 11:24:26;;;;;;;9.90;9.25;;;13.80;83.20;;;;;;4965046;28;20039;-88
2021/12/25 11:26:59;;;;;;;9.95;9.45;;;13.80;83.00;;;;;;4963165;28;20396;-87
2021/12/25 11:29:27;;;;;;;10.43;9.70;;;13.80;83.00;;;;;;4971494;28;20477;-88
2021/12/25 11:31:54;;;;;;;11.20;10.57;;;13.80;83.10;;;;;;4973916;28;20492;-87
2021/12/25 11:34:21;;;;;;;10.63;9.90;;;13.80;83.00;;;;;;4971185;28;20035;-88
2021/12/25 11:36:50;;;;;;;9.15;8.75;;;13.90;83.00;;;;;;4967366;28;20043;-89
2021/12/25 11:39:17;;;;;;;10.50;9.80;;;14.00;82.80;;;;;;4992952;28;20055;-85
2021/12/25 11:41:43;;;;;;;9.43;9.02;;;14.00;82.70;;;;;;4947727;28;20039;-85
2021/12/25 11:44:35;;;;;;;11.68;10.60;;;14.10;82.70;;;;;;4971983;28;20508;-84
2021/12/25 11:47:02;;;;;;;10.38;9.85;;;14.10;82.50;;;;;;4973306;28;20043;-85
2021/12/25 11:49:28;;;;;;;11.43;10.82;;;14.30;82.40;;;;;;4968653;28;20119;-85
2021/12/25 11:51:55;;;;;;;10.77;10.27;;;14.50;82.00;;;;;;4955871;28;20046;-85
2021/12/25 11:55:09;;;;;;;11.52;11.02;;;14.60;81.40;;;;;;4976457;28;20038;-84
2021/12/25 11:59:44;;;;;;;15.70;14.80;;;14.90;80.80;;;;;;4971066;28;20039;-85
2021/12/25 12:02:11;;;;;;;11.07;10.57;;;14.90;80.60;;;;;;4960810;28;20044;-85
2021/12/25 12:04:37;;;;;;;15.93;15.15;;;15.00;80.50;;;;;;4953132;28;20396;-85
2021/12/25 12:07:13;;;;;;;14.15;13.32;;;15.10;80.30;;;;;;4970896;28;20039;-85
2021/12/25 12:09:45;;;;;;;12.68;11.98;;;15.30;80.10;;;;;;4961891;28;20042;-84
2021/12/25 12:12:18;;;;;;;11.77;11.20;;;15.50;79.90;;;;;;4967001;28;20031;-85
2021/12/25 12:14:44;;;;;;;10.68;10.18;;;15.60;79.70;;;;;;4970483;28;20050;-85
2021/12/25 12:17:19;;;;;;;10.48;9.98;;;15.70;79.70;;;;;;4963503;28;20039;-85
2021/12/25 12:19:47;;;;;;;10.88;10.27;;;15.60;79.60;;;;;;4965293;28;20504;-85
2021/12/25 12:27:57;;;;;;;11.20;10.60;;;15.20;80.50;;;;;;4919608;29;20351;-85
2021/12/25 12:30:32;;;;;;;10.98;10.40;;;15.00;81.90;;;;;;4915523;29;20032;-86
2021/12/25 12:32:59;;;;;;;10.50;9.98;;;14.80;81.30;;;;;;4932284;29;20043;-85
2021/12/25 12:35:36;;;;;;;10.45;9.95;;;14.80;81.60;;;;;;4929179;29;20115;-85
2021/12/25 12:38:38;;;;;;;10.48;9.82;;;14.70;81.80;;;;;;4899725;29;20172;-85
2021/12/25 12:41:16;;;;;;;11.00;10.40;;;14.70;81.80;;;;;;4932067;29;20414;-85
2021/12/25 12:43:58;;;;;;;11.52;10.80;;;14.70;81.70;;;;;;4933331;29;20039;-85
2021/12/25 12:46:46;;;;;;;10.48;9.75;;;14.60;81.80;;;;;;4926974;29;20050;-85
2021/12/25 12:49:12;;;;;;;10.95;10.45;;;14.60;82.50;;;;;;4919716;29;20039;-86
2021/12/25 12:51:38;;;;;;;11.75;10.90;;;14.70;81.70;;;;;;4899815;29;20036;-85
2021/12/25 12:54:04;;;;;;;10.60;10.10;;;14.70;81.70;;;;;;4931609;29;20050;-84
2021/12/25 12:56:30;;;;;;;11.05;10.45;;;14.70;81.70;;;;;;4927244;29;20070;-84
2021/12/25 12:58:57;;;;;;;11.02;10.32;;;14.70;81.70;;;;;;4883387;29;20040;-80
2021/12/25 13:01:26;;;;;;;10.38;9.77;;;14.70;81.70;;;;;;4926048;28;20404;-79
2021/12/25 13:04:01;;;;;;;10.82;10.32;;;14.80;81.60;;;;;;4953062;28;20062;-79
2021/12/25 13:06:30;;;;;;;11.82;11.25;;;14.70;81.50;;;;;;4971292;28;20023;-80
2021/12/25 13:09:00;;;;;;;12.05;11.20;;;14.70;81.30;;;;;;4979364;28;20034;-80
2021/12/25 13:11:33;;;;;;;12.10;11.20;;;14.70;81.40;;;;;;4959022;28;20047;-80
2021/12/25 13:13:59;;;;;;;11.20;10.52;;;14.70;81.30;;;;;;4965226;28;20027;-79
2021/12/25 13:16:43;;;;;;;11.02;10.43;;;14.70;81.30;;;;;;4978074;28;20061;-79
2021/12/25 13:19:09;;;;;;;12.07;11.45;;;14.80;81.30;;;;;;4974313;28;20035;-79
2021/12/25 13:21:36;;;;;;;11.60;11.00;;;14.90;81.00;;;;;;4972268;28;20031;-79
2021/12/25 13:24:11;;;;;;;10.60;10.10;;;15.00;80.80;;;;;;4980606;28;20045;-79
2021/12/25 13:26:42;;;;;;;11.38;10.73;;;15.10;80.60;;;;;;4969285;28;20387;-79
2021/12/25 13:29:12;;;;;;;11.13;10.63;;;15.00;80.50;;;;;;4949577;28;20031;-80
2021/12/25 13:31:40;;;;;;;11.70;11.07;;;15.00;80.60;;;;;;4964074;28;20053;-79
2021/12/25 13:34:13;;;;;;;11.05;10.55;;;14.90;80.80;;;;;;4971976;28;20030;-79
2021/12/25 13:36:40;;;;;;;11.65;11.05;;;14.90;80.90;;;;;;4966619;28;20476;-79
2021/12/25 13:39:09;;;;;;;11.48;10.88;;;14.90;80.80;;;;;;4956311;28;20043;-79
2021/12/25 13:41:54;;;;;;;12.35;11.55;;;14.80;80.80;;;;;;4965336;28;20023;-79
2021/12/25 13:44:24;;;;;;;10.98;10.45;;;14.80;80.90;;;;;;4968833;28;20380;-79
2021/12/25 13:46:52;;;;;;;11.82;11.10;;;14.80;81.00;;;;;;4970661;28;20058;-79
2021/12/25 13:49:35;;;;;;;12.70;11.45;;;14.80;81.10;;;;;;4959499;28;20042;-79
2021/12/25 13:52:20;;;;;;;23.10;11.57;;;14.70;81.00;;;;;;4972146;28;20050;-81
2021/12/25 13:55:00;;;;;;;11.88;11.27;;;14.80;81.10;;;;;;4971435;28;20031;-79
2021/12/25 13:57:27;;;;;;;12.13;11.50;;;14.70;80.90;;;;;;4963454;28;20026;-79
2021/12/25 14:00:34;;;;;;;11.02;10.43;;;14.80;81.10;;;;;;4968088;28;20023;-79
2021/12/25 14:03:02;;;;;;;12.15;11.45;;;14.80;81.10;;;;;;4968504;28;20785;-79
2021/12/25 14:05:30;;;;;;;11.85;11.25;;;14.90;81.00;;;;;;4957797;28;20034;-79
2021/12/25 14:07:56;;;;;;;12.88;12.15;;;14.90;80.90;;;;;;4976754;28;20039;-78
2021/12/25 14:10:24;;;;;;;13.88;13.18;;;14.90;80.80;;;;;;4980465;28;20031;-79
2021/12/25 14:12:52;;;;;;;11.98;11.40;;;14.90;80.70;;;;;;4970346;28;20023;-79
2021/12/25 14:15:20;;;;;;;14.02;12.88;;;14.90;80.60;;;;;;4970216;28;20023;-79